Arcata, CA (95518)

9:56 PM PDT on July 24, 2016 (GMT -0700)
Woodland Heights | | Change Station

Elev 194 ft 40.89 °N, 124.07 °W | Updated 1 minute ago

Overcast
Overcast
57.6 °F
Feels Like 57.6 °F
N
0.0
Wind Variable Wind from SSW
Gusts 0.0 mph

Today
High -- | Low -- °F
--% Chance of Precip.
Yesterday
High -- | Low -- °F
Precip. -- in
Pressure 30.05 in
Visibility 10.0 miles
Clouds Overcast 900 ft
Dew Point 55 °F
Humidity 91%
Rainfall 0.00 in
Snow Depth Not available.
6:05 AM 8:39 PM
Waning Gibbous, 70% visible
METAR KACV 250453Z AUTO 10005KT 10SM OVC009 15/12 A3003 RMK AO2 SLP174 T01500122
Pressure 30.05 in
Visibility 10.0 miles
Clouds Overcast 900 ft
Dew Point 55 °F
Humidity 91%
Rainfall 0.00 in
Snow Depth Not available.
6:05 AM 8:39 PM
Waning Gibbous, 70% visible
METAR KACV 250453Z AUTO 10005KT 10SM OVC009 15/12 A3003 RMK AO2 SLP174 T01500122

10-Day Weather Forecast

Almanac

Astronomy

Jul. 24, 2016 Rise Set
Actual Time
Civil Twilight
Nautical Twilight
Astronomical Twilight
Moon
Length of Visible Light
Length of Day
Tomorrow will be .
, % of the Moon is Illuminated

Today's Extremes

State Highs State Lows

Community

WunderPhotos

Upload Photos

1,927,266 photos uploaded!

WunderBlog® & News

Nearby

Air Quality

  Air Quality AQ Index Pollutant
Not available.

Snow Depth

Station Depth Elevation

Earthquake Activity

City Distance Mag. Time & Date
Minimum magnitude displayed is 2.5.

Coastal Water Temperatures

Place Temperature

Stations

Nearby Weather Stations

Station Location Temp. Windchill Dew Point Humidity Wind Precip. Elev Updated Type
                   

Watches & Warnings

There are currently no watches in effect.